sensor_id;sensor_type;location;lat;lon;timestamp;P1;durP1;ratioP1;P2;durP2;ratioP2
4676;SDS011;2352;48.180;11.478;2023-09-19T00:01:28;0.98;;;0.88;;
4676;SDS011;2352;48.180;11.478;2023-09-19T00:04:33;1.00;;;0.90;;
4676;SDS011;2352;48.180;11.478;2023-09-19T00:07:36;1.10;;;0.95;;
4676;SDS011;2352;48.180;11.478;2023-09-19T00:10:39;0.80;;;0.80;;
4676;SDS011;2352;48.180;11.478;2023-09-19T00:13:45;1.45;;;0.90;;
4676;SDS011;2352;48.180;11.478;2023-09-19T00:16:51;1.00;;;0.90;;
4676;SDS011;2352;48.180;11.478;2023-09-19T00:19:55;1.00;;;0.85;;
4676;SDS011;2352;48.180;11.478;2023-09-19T00:22:58;0.98;;;0.90;;
4676;SDS011;2352;48.180;11.478;2023-09-19T00:26:09;1.05;;;0.90;;
4676;SDS011;2352;48.180;11.478;2023-09-19T00:29:14;3.10;;;1.10;;
4676;SDS011;2352;48.180;11.478;2023-09-19T00:32:17;1.90;;;1.10;;
4676;SDS011;2352;48.180;11.478;2023-09-19T00:35:20;1.02;;;0.93;;
4676;SDS011;2352;48.180;11.478;2023-09-19T00:38:25;0.95;;;0.90;;
4676;SDS011;2352;48.180;11.478;2023-09-19T00:41:28;0.80;;;0.80;;
4676;SDS011;2352;48.180;11.478;2023-09-19T00:44:33;0.90;;;0.90;;
4676;SDS011;2352;48.180;11.478;2023-09-19T00:47:38;1.10;;;1.00;;
4676;SDS011;2352;48.180;11.478;2023-09-19T00:50:44;1.17;;;0.90;;
4676;SDS011;2352;48.180;11.478;2023-09-19T00:53:49;2.05;;;1.05;;
4676;SDS011;2352;48.180;11.478;2023-09-19T00:56:52;1.37;;;0.97;;
4676;SDS011;2352;48.180;11.478;2023-09-19T00:59:57;1.25;;;1.15;;
4676;SDS011;2352;48.180;11.478;2023-09-19T01:03:00;1.30;;;1.00;;
4676;SDS011;2352;48.180;11.478;2023-09-19T01:06:04;2.05;;;1.00;;
4676;SDS011;2352;48.180;11.478;2023-09-19T01:09:08;1.10;;;1.00;;
4676;SDS011;2352;48.180;11.478;2023-09-19T01:12:12;1.20;;;0.95;;
4676;SDS011;2352;48.180;11.478;2023-09-19T01:15:28;1.60;;;1.00;;
4676;SDS011;2352;48.180;11.478;2023-09-19T01:18:43;1.60;;;1.10;;
4676;SDS011;2352;48.180;11.478;2023-09-19T01:21:55;2.30;;;0.80;;
4676;SDS011;2352;48.180;11.478;2023-09-19T01:25:17;1.10;;;0.93;;
4676;SDS011;2352;48.180;11.478;2023-09-19T01:28:54;1.90;;;1.27;;
4676;SDS011;2352;48.180;11.478;2023-09-19T01:32:13;0.88;;;0.80;;
4676;SDS011;2352;48.180;11.478;2023-09-19T01:35:23;1.38;;;1.27;;
4676;SDS011;2352;48.180;11.478;2023-09-19T01:38:26;1.15;;;1.10;;
4676;SDS011;2352;48.180;11.478;2023-09-19T01:41:33;1.20;;;1.10;;
4676;SDS011;2352;48.180;11.478;2023-09-19T01:44:57;0.87;;;0.87;;
4676;SDS011;2352;48.180;11.478;2023-09-19T01:48:11;1.35;;;1.00;;
4676;SDS011;2352;48.180;11.478;2023-09-19T01:51:26;1.67;;;1.00;;
4676;SDS011;2352;48.180;11.478;2023-09-19T01:54:36;0.90;;;0.90;;
4676;SDS011;2352;48.180;11.478;2023-09-19T01:57:48;1.65;;;1.13;;
4676;SDS011;2352;48.180;11.478;2023-09-19T02:00:56;1.30;;;1.00;;
4676;SDS011;2352;48.180;11.478;2023-09-19T02:04:03;1.50;;;1.10;;
4676;SDS011;2352;48.180;11.478;2023-09-19T02:07:07;1.17;;;1.08;;
4676;SDS011;2352;48.180;11.478;2023-09-19T02:10:10;2.10;;;1.30;;
4676;SDS011;2352;48.180;11.478;2023-09-19T02:13:13;1.75;;;1.00;;
4676;SDS011;2352;48.180;11.478;2023-09-19T02:16:18;0.98;;;0.93;;
4676;SDS011;2352;48.180;11.478;2023-09-19T02:19:23;1.77;;;1.20;;
4676;SDS011;2352;48.180;11.478;2023-09-19T02:22:27;1.60;;;0.95;;
4676;SDS011;2352;48.180;11.478;2023-09-19T02:25:30;1.50;;;0.90;;
4676;SDS011;2352;48.180;11.478;2023-09-19T02:28:34;0.90;;;0.90;;
4676;SDS011;2352;48.180;11.478;2023-09-19T02:31:37;1.90;;;0.98;;
4676;SDS011;2352;48.180;11.478;2023-09-19T02:34:41;0.93;;;0.93;;
4676;SDS011;2352;48.180;11.478;2023-09-19T02:37:46;1.33;;;1.17;;
4676;SDS011;2352;48.180;11.478;2023-09-19T02:40:49;2.15;;;1.30;;
4676;SDS011;2352;48.180;11.478;2023-09-19T02:43:52;1.63;;;1.10;;
4676;SDS011;2352;48.180;11.478;2023-09-19T02:46:55;1.20;;;1.00;;
4676;SDS011;2352;48.180;11.478;2023-09-19T02:50:00;1.10;;;1.08;;
4676;SDS011;2352;48.180;11.478;2023-09-19T02:53:03;2.85;;;0.93;;
4676;SDS011;2352;48.180;11.478;2023-09-19T02:56:07;1.17;;;1.08;;
4676;SDS011;2352;48.180;11.478;2023-09-19T02:59:10;1.13;;;1.03;;
4676;SDS011;2352;48.180;11.478;2023-09-19T03:02:14;2.20;;;1.08;;
4676;SDS011;2352;48.180;11.478;2023-09-19T03:05:18;3.00;;;1.40;;
4676;SDS011;2352;48.180;11.478;2023-09-19T03:08:22;2.28;;;1.10;;
4676;SDS011;2352;48.180;11.478;2023-09-19T03:11:26;3.37;;;1.03;;
4676;SDS011;2352;48.180;11.478;2023-09-19T03:14:29;0.90;;;0.90;;
4676;SDS011;2352;48.180;11.478;2023-09-19T03:17:36;1.70;;;0.93;;
4676;SDS011;2352;48.180;11.478;2023-09-19T03:20:41;1.90;;;1.30;;
4676;SDS011;2352;48.180;11.478;2023-09-19T03:23:44;1.33;;;1.23;;
4676;SDS011;2352;48.180;11.478;2023-09-19T03:26:48;1.25;;;1.15;;
4676;SDS011;2352;48.180;11.478;2023-09-19T03:29:51;0.82;;;0.77;;
4676;SDS011;2352;48.180;11.478;2023-09-19T03:32:54;1.20;;;1.13;;
4676;SDS011;2352;48.180;11.478;2023-09-19T03:35:59;1.10;;;1.00;;
4676;SDS011;2352;48.180;11.478;2023-09-19T03:39:05;1.30;;;1.10;;
4676;SDS011;2352;48.180;11.478;2023-09-19T03:42:09;1.40;;;1.03;;
4676;SDS011;2352;48.180;11.478;2023-09-19T03:45:12;1.05;;;0.95;;
4676;SDS011;2352;48.180;11.478;2023-09-19T03:48:17;2.83;;;1.23;;
4676;SDS011;2352;48.180;11.478;2023-09-19T03:51:22;1.20;;;1.05;;
4676;SDS011;2352;48.180;11.478;2023-09-19T03:54:25;1.83;;;1.17;;
4676;SDS011;2352;48.180;11.478;2023-09-19T03:57:28;1.23;;;1.13;;
4676;SDS011;2352;48.180;11.478;2023-09-19T04:00:31;2.67;;;1.10;;
4676;SDS011;2352;48.180;11.478;2023-09-19T04:03:39;1.13;;;1.00;;
4676;SDS011;2352;48.180;11.478;2023-09-19T04:06:50;1.27;;;1.00;;
4676;SDS011;2352;48.180;11.478;2023-09-19T04:09:53;1.25;;;1.15;;
4676;SDS011;2352;48.180;11.478;2023-09-19T04:12:56;1.30;;;1.20;;
4676;SDS011;2352;48.180;11.478;2023-09-19T04:15:59;1.20;;;1.10;;
4676;SDS011;2352;48.180;11.478;2023-09-19T04:19:02;1.48;;;1.30;;
4676;SDS011;2352;48.180;11.478;2023-09-19T04:22:07;1.33;;;1.20;;
4676;SDS011;2352;48.180;11.478;2023-09-19T04:25:10;1.98;;;1.35;;
4676;SDS011;2352;48.180;11.478;2023-09-19T04:28:13;1.70;;;1.30;;
4676;SDS011;2352;48.180;11.478;2023-09-19T04:31:16;1.20;;;1.08;;
4676;SDS011;2352;48.180;11.478;2023-09-19T04:34:20;1.50;;;1.10;;
4676;SDS011;2352;48.180;11.478;2023-09-19T04:37:26;1.10;;;1.00;;
4676;SDS011;2352;48.180;11.478;2023-09-19T04:40:30;1.63;;;1.05;;
4676;SDS011;2352;48.180;11.478;2023-09-19T04:43:34;1.70;;;1.20;;
4676;SDS011;2352;48.180;11.478;2023-09-19T04:46:37;4.93;;;1.40;;
4676;SDS011;2352;48.180;11.478;2023-09-19T04:49:40;1.35;;;1.08;;
4676;SDS011;2352;48.180;11.478;2023-09-19T04:52:45;1.10;;;1.00;;
4676;SDS011;2352;48.180;11.478;2023-09-19T04:55:52;1.20;;;1.10;;
4676;SDS011;2352;48.180;11.478;2023-09-19T04:58:57;2.90;;;1.10;;
4676;SDS011;2352;48.180;11.478;2023-09-19T05:02:00;1.30;;;1.20;;
4676;SDS011;2352;48.180;11.478;2023-09-19T05:05:03;1.33;;;1.23;;
4676;SDS011;2352;48.180;11.478;2023-09-19T05:08:08;1.23;;;1.13;;
4676;SDS011;2352;48.180;11.478;2023-09-19T05:11:11;1.15;;;1.00;;
4676;SDS011;2352;48.180;11.478;2023-09-19T05:14:14;1.33;;;1.23;;
4676;SDS011;2352;48.180;11.478;2023-09-19T05:17:17;2.33;;;1.50;;
4676;SDS011;2352;48.180;11.478;2023-09-19T05:20:20;1.73;;;1.40;;
4676;SDS011;2352;48.180;11.478;2023-09-19T05:23:33;1.47;;;1.20;;
4676;SDS011;2352;48.180;11.478;2023-09-19T05:26:35;1.05;;;1.00;;
4676;SDS011;2352;48.180;11.478;2023-09-19T05:29:38;1.73;;;1.10;;
4676;SDS011;2352;48.180;11.478;2023-09-19T05:32:43;1.15;;;1.05;;
4676;SDS011;2352;48.180;11.478;2023-09-19T05:35:47;1.52;;;1.42;;
4676;SDS011;2352;48.180;11.478;2023-09-19T05:38:52;2.00;;;1.10;;
4676;SDS011;2352;48.180;11.478;2023-09-19T05:41:55;2.63;;;1.47;;
4676;SDS011;2352;48.180;11.478;2023-09-19T05:44:58;2.10;;;1.23;;
4676;SDS011;2352;48.180;11.478;2023-09-19T05:48:07;1.45;;;1.10;;
4676;SDS011;2352;48.180;11.478;2023-09-19T05:51:11;1.27;;;0.98;;
4676;SDS011;2352;48.180;11.478;2023-09-19T05:54:15;2.90;;;1.20;;
4676;SDS011;2352;48.180;11.478;2023-09-19T05:57:19;1.85;;;1.50;;
4676;SDS011;2352;48.180;11.478;2023-09-19T06:00:23;0.90;;;0.90;;
4676;SDS011;2352;48.180;11.478;2023-09-19T06:03:28;1.00;;;0.90;;
4676;SDS011;2352;48.180;11.478;2023-09-19T06:06:32;1.30;;;0.90;;
4676;SDS011;2352;48.180;11.478;2023-09-19T06:09:41;1.40;;;1.10;;
4676;SDS011;2352;48.180;11.478;2023-09-19T06:12:44;1.20;;;1.00;;
4676;SDS011;2352;48.180;11.478;2023-09-19T06:15:47;0.90;;;0.90;;
4676;SDS011;2352;48.180;11.478;2023-09-19T06:18:51;1.55;;;1.00;;
4676;SDS011;2352;48.180;11.478;2023-09-19T06:21:54;1.45;;;1.13;;
4676;SDS011;2352;48.180;11.478;2023-09-19T06:24:59;0.88;;;0.70;;
4676;SDS011;2352;48.180;11.478;2023-09-19T06:28:08;1.95;;;1.08;;
4676;SDS011;2352;48.180;11.478;2023-09-19T06:31:13;2.05;;;1.00;;
4676;SDS011;2352;48.180;11.478;2023-09-19T06:34:16;1.30;;;1.00;;
4676;SDS011;2352;48.180;11.478;2023-09-19T06:37:19;1.10;;;1.00;;
4676;SDS011;2352;48.180;11.478;2023-09-19T06:40:24;1.63;;;0.95;;
4676;SDS011;2352;48.180;11.478;2023-09-19T06:43:29;1.30;;;1.20;;
4676;SDS011;2352;48.180;11.478;2023-09-19T06:46:34;2.60;;;1.20;;
4676;SDS011;2352;48.180;11.478;2023-09-19T06:49:40;1.20;;;0.90;;
4676;SDS011;2352;48.180;11.478;2023-09-19T06:52:45;1.08;;;0.88;;
4676;SDS011;2352;48.180;11.478;2023-09-19T06:55:53;1.35;;;1.17;;
4676;SDS011;2352;48.180;11.478;2023-09-19T06:58:56;0.95;;;0.95;;
4676;SDS011;2352;48.180;11.478;2023-09-19T07:01:59;0.80;;;0.80;;
4676;SDS011;2352;48.180;11.478;2023-09-19T07:05:02;1.13;;;0.80;;
4676;SDS011;2352;48.180;11.478;2023-09-19T07:08:07;1.02;;;0.93;;
4676;SDS011;2352;48.180;11.478;2023-09-19T07:11:15;1.52;;;1.20;;
4676;SDS011;2352;48.180;11.478;2023-09-19T07:14:18;1.97;;;1.20;;
4676;SDS011;2352;48.180;11.478;2023-09-19T07:17:21;1.20;;;1.02;;
4676;SDS011;2352;48.180;11.478;2023-09-19T07:20:25;1.00;;;1.00;;
4676;SDS011;2352;48.180;11.478;2023-09-19T07:23:28;0.75;;;0.70;;
4676;SDS011;2352;48.180;11.478;2023-09-19T07:26:37;1.20;;;0.90;;
4676;SDS011;2352;48.180;11.478;2023-09-19T07:29:41;1.00;;;1.00;;
4676;SDS011;2352;48.180;11.478;2023-09-19T07:32:44;0.80;;;0.80;;
4676;SDS011;2352;48.180;11.478;2023-09-19T07:35:47;1.30;;;1.20;;
4676;SDS011;2352;48.180;11.478;2023-09-19T07:38:50;1.23;;;1.00;;
4676;SDS011;2352;48.180;11.478;2023-09-19T07:41:55;1.27;;;1.17;;
4676;SDS011;2352;48.180;11.478;2023-09-19T07:44:58;1.95;;;1.63;;
4676;SDS011;2352;48.180;11.478;2023-09-19T07:48:01;1.15;;;0.93;;
4676;SDS011;2352;48.180;11.478;2023-09-19T07:51:25;1.83;;;1.08;;
4676;SDS011;2352;48.180;11.478;2023-09-19T07:54:28;1.90;;;0.93;;
4676;SDS011;2352;48.180;11.478;2023-09-19T07:57:38;0.95;;;0.88;;
4676;SDS011;2352;48.180;11.478;2023-09-19T08:00:42;1.03;;;0.93;;
4676;SDS011;2352;48.180;11.478;2023-09-19T08:03:45;2.73;;;0.87;;
4676;SDS011;2352;48.180;11.478;2023-09-19T08:06:49;1.50;;;0.70;;
4676;SDS011;2352;48.180;11.478;2023-09-19T08:09:53;0.93;;;0.85;;
4676;SDS011;2352;48.180;11.478;2023-09-19T08:12:57;2.72;;;0.88;;
4676;SDS011;2352;48.180;11.478;2023-09-19T08:16:01;0.80;;;0.73;;
4676;SDS011;2352;48.180;11.478;2023-09-19T08:19:05;1.10;;;0.90;;
4676;SDS011;2352;48.180;11.478;2023-09-19T08:22:08;1.33;;;0.85;;
4676;SDS011;2352;48.180;11.478;2023-09-19T08:25:12;1.38;;;0.90;;
4676;SDS011;2352;48.180;11.478;2023-09-19T08:28:17;1.08;;;0.80;;
4676;SDS011;2352;48.180;11.478;2023-09-19T08:31:25;1.10;;;0.90;;
4676;SDS011;2352;48.180;11.478;2023-09-19T08:34:29;1.60;;;0.95;;
4676;SDS011;2352;48.180;11.478;2023-09-19T08:37:32;0.80;;;0.80;;
4676;SDS011;2352;48.180;11.478;2023-09-19T08:40:36;0.73;;;0.73;;
4676;SDS011;2352;48.180;11.478;2023-09-19T08:43:42;1.20;;;1.10;;
4676;SDS011;2352;48.180;11.478;2023-09-19T08:46:48;0.83;;;0.77;;
4676;SDS011;2352;48.180;11.478;2023-09-19T08:49:53;0.70;;;0.70;;
4676;SDS011;2352;48.180;11.478;2023-09-19T08:53:05;1.38;;;0.90;;
4676;SDS011;2352;48.180;11.478;2023-09-19T08:56:13;0.63;;;0.57;;
4676;SDS011;2352;48.180;11.478;2023-09-19T08:59:21;1.50;;;0.80;;
4676;SDS011;2352;48.180;11.478;2023-09-19T09:02:27;1.60;;;0.83;;
4676;SDS011;2352;48.180;11.478;2023-09-19T09:05:31;0.70;;;0.70;;
4676;SDS011;2352;48.180;11.478;2023-09-19T09:08:38;0.87;;;0.80;;
4676;SDS011;2352;48.180;11.478;2023-09-19T09:11:41;1.00;;;0.70;;
4676;SDS011;2352;48.180;11.478;2023-09-19T09:14:46;0.80;;;0.70;;
4676;SDS011;2352;48.180;11.478;2023-09-19T09:17:50;0.80;;;0.73;;
4676;SDS011;2352;48.180;11.478;2023-09-19T09:20:54;0.60;;;0.60;;
4676;SDS011;2352;48.180;11.478;2023-09-19T09:23:57;1.10;;;0.60;;
4676;SDS011;2352;48.180;11.478;2023-09-19T09:27:02;2.30;;;0.65;;
4676;SDS011;2352;48.180;11.478;2023-09-19T09:30:16;1.50;;;0.70;;
4676;SDS011;2352;48.180;11.478;2023-09-19T09:33:35;0.80;;;0.70;;
4676;SDS011;2352;48.180;11.478;2023-09-19T09:36:39;1.10;;;1.00;;
4676;SDS011;2352;48.180;11.478;2023-09-19T09:39:48;1.37;;;0.80;;
4676;SDS011;2352;48.180;11.478;2023-09-19T09:42:54;2.60;;;0.98;;
4676;SDS011;2352;48.180;11.478;2023-09-19T09:49:37;1.05;;;0.73;;
4676;SDS011;2352;48.180;11.478;2023-09-19T09:52:46;0.95;;;0.73;;
4676;SDS011;2352;48.180;11.478;2023-09-19T09:56:02;0.70;;;0.70;;
4676;SDS011;2352;48.180;11.478;2023-09-19T09:59:10;1.70;;;0.90;;
4676;SDS011;2352;48.180;11.478;2023-09-19T10:02:20;1.65;;;0.75;;
4676;SDS011;2352;48.180;11.478;2023-09-19T10:05:31;1.10;;;0.90;;
4676;SDS011;2352;48.180;11.478;2023-09-19T10:08:45;1.67;;;0.80;;
4676;SDS011;2352;48.180;11.478;2023-09-19T10:12:06;0.65;;;0.60;;
4676;SDS011;2352;48.180;11.478;2023-09-19T10:15:13;1.20;;;0.85;;
4676;SDS011;2352;48.180;11.478;2023-09-19T10:18:20;1.08;;;0.85;;
4676;SDS011;2352;48.180;11.478;2023-09-19T10:21:24;1.88;;;0.93;;
4676;SDS011;2352;48.180;11.478;2023-09-19T10:24:31;0.90;;;0.80;;
4676;SDS011;2352;48.180;11.478;2023-09-19T10:27:49;1.58;;;0.70;;
4676;SDS011;2352;48.180;11.478;2023-09-19T10:30:54;1.63;;;0.70;;
4676;SDS011;2352;48.180;11.478;2023-09-19T10:34:01;0.70;;;0.60;;
4676;SDS011;2352;48.180;11.478;2023-09-19T10:37:06;1.27;;;0.60;;
4676;SDS011;2352;48.180;11.478;2023-09-19T10:40:13;2.40;;;1.10;;
4676;SDS011;2352;48.180;11.478;2023-09-19T10:43:18;0.95;;;0.82;;
4676;SDS011;2352;48.180;11.478;2023-09-19T10:46:22;2.10;;;0.90;;
4676;SDS011;2352;48.180;11.478;2023-09-19T10:49:28;0.93;;;0.70;;
4676;SDS011;2352;48.180;11.478;2023-09-19T10:52:32;1.38;;;0.80;;
4676;SDS011;2352;48.180;11.478;2023-09-19T10:55:41;1.33;;;0.82;;
4676;SDS011;2352;48.180;11.478;2023-09-19T10:59:04;1.17;;;0.70;;
4676;SDS011;2352;48.180;11.478;2023-09-19T11:02:18;1.38;;;0.63;;
4676;SDS011;2352;48.180;11.478;2023-09-19T11:05:22;1.70;;;1.23;;
4676;SDS011;2352;48.180;11.478;2023-09-19T11:08:25;0.90;;;0.70;;
4676;SDS011;2352;48.180;11.478;2023-09-19T11:11:39;0.60;;;0.60;;
4676;SDS011;2352;48.180;11.478;2023-09-19T11:14:47;1.38;;;0.70;;
4676;SDS011;2352;48.180;11.478;2023-09-19T11:17:50;1.00;;;0.80;;
4676;SDS011;2352;48.180;11.478;2023-09-19T11:21:04;1.63;;;1.27;;
4676;SDS011;2352;48.180;11.478;2023-09-19T11:24:47;0.70;;;0.60;;
4676;SDS011;2352;48.180;11.478;2023-09-19T11:35:06;1.40;;;0.50;;
4676;SDS011;2352;48.180;11.478;2023-09-19T11:38:10;0.88;;;0.60;;
4676;SDS011;2352;48.180;11.478;2023-09-19T11:44:40;0.50;;;0.50;;
4676;SDS011;2352;48.180;11.478;2023-09-19T11:47:44;0.98;;;0.60;;
4676;SDS011;2352;48.180;11.478;2023-09-19T11:50:48;0.50;;;0.50;;
4676;SDS011;2352;48.180;11.478;2023-09-19T11:53:52;0.60;;;0.50;;
4676;SDS011;2352;48.180;11.478;2023-09-19T11:56:58;0.98;;;0.68;;
4676;SDS011;2352;48.180;11.478;2023-09-19T12:00:02;0.63;;;0.63;;
4676;SDS011;2352;48.180;11.478;2023-09-19T12:03:10;0.88;;;0.50;;
4676;SDS011;2352;48.180;11.478;2023-09-19T12:06:15;0.93;;;0.63;;
4676;SDS011;2352;48.180;11.478;2023-09-19T12:09:19;1.30;;;0.50;;
4676;SDS011;2352;48.180;11.478;2023-09-19T12:12:25;0.90;;;0.70;;
4676;SDS011;2352;48.180;11.478;2023-09-19T12:15:29;0.73;;;0.60;;
4676;SDS011;2352;48.180;11.478;2023-09-19T12:18:36;1.75;;;0.85;;
4676;SDS011;2352;48.180;11.478;2023-09-19T12:21:39;1.37;;;1.10;;
4676;SDS011;2352;48.180;11.478;2023-09-19T12:24:43;0.90;;;0.80;;
4676;SDS011;2352;48.180;11.478;2023-09-19T12:27:47;0.52;;;0.52;;
4676;SDS011;2352;48.180;11.478;2023-09-19T12:30:54;0.85;;;0.70;;
4676;SDS011;2352;48.180;11.478;2023-09-19T12:33:59;1.95;;;0.85;;
4676;SDS011;2352;48.180;11.478;2023-09-19T12:37:03;0.85;;;0.70;;
4676;SDS011;2352;48.180;11.478;2023-09-19T12:40:12;0.82;;;0.70;;
4676;SDS011;2352;48.180;11.478;2023-09-19T12:43:20;0.80;;;0.68;;
4676;SDS011;2352;48.180;11.478;2023-09-19T12:46:23;1.55;;;0.68;;
4676;SDS011;2352;48.180;11.478;2023-09-19T12:49:27;1.95;;;0.82;;
4676;SDS011;2352;48.180;11.478;2023-09-19T12:52:33;0.70;;;0.70;;
4676;SDS011;2352;48.180;11.478;2023-09-19T12:55:38;0.50;;;0.50;;
4676;SDS011;2352;48.180;11.478;2023-09-19T12:58:52;2.00;;;0.60;;
4676;SDS011;2352;48.180;11.478;2023-09-19T13:02:03;1.65;;;0.73;;
4676;SDS011;2352;48.180;11.478;2023-09-19T13:05:07;1.03;;;0.80;;
4676;SDS011;2352;48.180;11.478;2023-09-19T13:08:17;0.53;;;0.53;;
4676;SDS011;2352;48.180;11.478;2023-09-19T13:11:21;0.60;;;0.60;;
4676;SDS011;2352;48.180;11.478;2023-09-19T13:14:26;0.60;;;0.60;;
4676;SDS011;2352;48.180;11.478;2023-09-19T13:17:42;0.93;;;0.65;;
4676;SDS011;2352;48.180;11.478;2023-09-19T13:20:55;0.70;;;0.60;;
4676;SDS011;2352;48.180;11.478;2023-09-19T13:24:18;0.52;;;0.52;;
4676;SDS011;2352;48.180;11.478;2023-09-19T13:27:22;0.88;;;0.60;;
4676;SDS011;2352;48.180;11.478;2023-09-19T13:30:27;0.70;;;0.70;;
4676;SDS011;2352;48.180;11.478;2023-09-19T13:33:31;1.57;;;0.60;;
4676;SDS011;2352;48.180;11.478;2023-09-19T13:36:34;1.80;;;0.80;;
4676;SDS011;2352;48.180;11.478;2023-09-19T13:39:38;1.00;;;0.85;;
4676;SDS011;2352;48.180;11.478;2023-09-19T13:42:48;0.57;;;0.57;;
4676;SDS011;2352;48.180;11.478;2023-09-19T13:45:56;1.00;;;0.70;;
4676;SDS011;2352;48.180;11.478;2023-09-19T13:49:00;0.60;;;0.55;;
4676;SDS011;2352;48.180;11.478;2023-09-19T13:52:05;1.90;;;1.00;;
4676;SDS011;2352;48.180;11.478;2023-09-19T13:55:08;1.63;;;0.68;;
4676;SDS011;2352;48.180;11.478;2023-09-19T13:58:11;0.88;;;0.80;;
4676;SDS011;2352;48.180;11.478;2023-09-19T14:01:16;1.20;;;1.00;;
4676;SDS011;2352;48.180;11.478;2023-09-19T14:04:19;0.53;;;0.53;;
4676;SDS011;2352;48.180;11.478;2023-09-19T14:07:23;1.30;;;0.90;;
4676;SDS011;2352;48.180;11.478;2023-09-19T14:10:26;1.40;;;0.70;;
4676;SDS011;2352;48.180;11.478;2023-09-19T14:13:31;0.77;;;0.70;;
4676;SDS011;2352;48.180;11.478;2023-09-19T14:16:35;0.70;;;0.70;;
4676;SDS011;2352;48.180;11.478;2023-09-19T14:19:40;0.80;;;0.60;;
4676;SDS011;2352;48.180;11.478;2023-09-19T14:22:47;1.33;;;0.75;;
4676;SDS011;2352;48.180;11.478;2023-09-19T14:25:50;0.88;;;0.75;;
4676;SDS011;2352;48.180;11.478;2023-09-19T14:28:55;1.30;;;0.80;;
4676;SDS011;2352;48.180;11.478;2023-09-19T14:32:02;0.93;;;0.68;;
4676;SDS011;2352;48.180;11.478;2023-09-19T14:35:06;2.05;;;0.63;;
4676;SDS011;2352;48.180;11.478;2023-09-19T14:38:10;0.60;;;0.53;;
4676;SDS011;2352;48.180;11.478;2023-09-19T14:41:14;1.75;;;0.73;;
4676;SDS011;2352;48.180;11.478;2023-09-19T14:44:17;0.82;;;0.50;;
4676;SDS011;2352;48.180;11.478;2023-09-19T14:47:22;0.60;;;0.60;;
4676;SDS011;2352;48.180;11.478;2023-09-19T14:50:25;0.50;;;0.50;;
4676;SDS011;2352;48.180;11.478;2023-09-19T14:53:28;0.50;;;0.50;;
4676;SDS011;2352;48.180;11.478;2023-09-19T14:56:31;0.85;;;0.80;;
4676;SDS011;2352;48.180;11.478;2023-09-19T14:59:34;1.67;;;0.80;;
4676;SDS011;2352;48.180;11.478;2023-09-19T15:02:40;0.80;;;0.80;;
4676;SDS011;2352;48.180;11.478;2023-09-19T15:05:43;1.13;;;0.70;;
4676;SDS011;2352;48.180;11.478;2023-09-19T15:08:47;1.10;;;0.90;;
4676;SDS011;2352;48.180;11.478;2023-09-19T15:11:51;0.67;;;0.63;;
4676;SDS011;2352;48.180;11.478;2023-09-19T15:14:55;1.00;;;0.60;;
4676;SDS011;2352;48.180;11.478;2023-09-19T15:17:59;0.93;;;0.60;;
4676;SDS011;2352;48.180;11.478;2023-09-19T15:21:02;1.10;;;0.75;;
4676;SDS011;2352;48.180;11.478;2023-09-19T15:24:06;0.82;;;0.73;;
4676;SDS011;2352;48.180;11.478;2023-09-19T15:27:11;1.15;;;0.88;;
4676;SDS011;2352;48.180;11.478;2023-09-19T15:30:14;1.00;;;0.90;;
4676;SDS011;2352;48.180;11.478;2023-09-19T15:33:18;0.68;;;0.60;;
4676;SDS011;2352;48.180;11.478;2023-09-19T15:36:22;0.98;;;0.98;;
4676;SDS011;2352;48.180;11.478;2023-09-19T15:39:25;1.08;;;0.70;;
4676;SDS011;2352;48.180;11.478;2023-09-19T15:42:34;0.50;;;0.50;;
4676;SDS011;2352;48.180;11.478;2023-09-19T15:45:37;1.42;;;0.80;;
4676;SDS011;2352;48.180;11.478;2023-09-19T15:48:41;0.70;;;0.60;;
4676;SDS011;2352;48.180;11.478;2023-09-19T15:51:46;0.70;;;0.60;;
4676;SDS011;2352;48.180;11.478;2023-09-19T15:54:49;0.68;;;0.68;;
4676;SDS011;2352;48.180;11.478;2023-09-19T15:57:53;0.80;;;0.70;;
4676;SDS011;2352;48.180;11.478;2023-09-19T16:00:56;1.13;;;0.70;;
4676;SDS011;2352;48.180;11.478;2023-09-19T16:04:01;2.80;;;0.90;;
4676;SDS011;2352;48.180;11.478;2023-09-19T16:07:05;1.92;;;0.77;;
4676;SDS011;2352;48.180;11.478;2023-09-19T16:10:08;1.42;;;0.60;;
4676;SDS011;2352;48.180;11.478;2023-09-19T16:13:11;0.68;;;0.60;;
4676;SDS011;2352;48.180;11.478;2023-09-19T16:16:14;0.98;;;0.80;;
4676;SDS011;2352;48.180;11.478;2023-09-19T16:19:20;0.95;;;0.88;;
4676;SDS011;2352;48.180;11.478;2023-09-19T16:22:23;1.25;;;0.65;;
4676;SDS011;2352;48.180;11.478;2023-09-19T16:25:27;1.60;;;0.65;;
4676;SDS011;2352;48.180;11.478;2023-09-19T16:28:30;1.27;;;0.68;;
4676;SDS011;2352;48.180;11.478;2023-09-19T16:31:35;0.87;;;0.60;;
4676;SDS011;2352;48.180;11.478;2023-09-19T16:34:40;0.60;;;0.60;;
4676;SDS011;2352;48.180;11.478;2023-09-19T16:37:43;1.10;;;0.82;;
4676;SDS011;2352;48.180;11.478;2023-09-19T16:40:53;1.10;;;1.10;;
4676;SDS011;2352;48.180;11.478;2023-09-19T16:43:57;1.37;;;0.97;;
4676;SDS011;2352;48.180;11.478;2023-09-19T16:47:00;1.88;;;0.75;;
4676;SDS011;2352;48.180;11.478;2023-09-19T16:50:06;0.70;;;0.70;;
4676;SDS011;2352;48.180;11.478;2023-09-19T16:53:11;0.80;;;0.80;;
4676;SDS011;2352;48.180;11.478;2023-09-19T16:56:14;0.70;;;0.68;;
4676;SDS011;2352;48.180;11.478;2023-09-19T16:59:20;1.63;;;1.00;;
4676;SDS011;2352;48.180;11.478;2023-09-19T17:02:25;1.00;;;0.90;;
4676;SDS011;2352;48.180;11.478;2023-09-19T17:05:31;1.13;;;0.85;;
4676;SDS011;2352;48.180;11.478;2023-09-19T17:08:34;1.02;;;0.98;;
4676;SDS011;2352;48.180;11.478;2023-09-19T17:11:38;1.25;;;0.70;;
4676;SDS011;2352;48.180;11.478;2023-09-19T17:14:41;0.80;;;0.80;;
4676;SDS011;2352;48.180;11.478;2023-09-19T17:17:45;1.47;;;0.60;;
4676;SDS011;2352;48.180;11.478;2023-09-19T17:20:49;1.70;;;1.02;;
4676;SDS011;2352;48.180;11.478;2023-09-19T17:23:52;0.80;;;0.80;;
4676;SDS011;2352;48.180;11.478;2023-09-19T17:26:56;0.70;;;0.70;;
4676;SDS011;2352;48.180;11.478;2023-09-19T17:29:59;1.42;;;1.27;;
4676;SDS011;2352;48.180;11.478;2023-09-19T17:33:02;1.15;;;1.05;;
4676;SDS011;2352;48.180;11.478;2023-09-19T17:36:08;1.48;;;1.25;;
4676;SDS011;2352;48.180;11.478;2023-09-19T17:39:12;1.20;;;1.10;;
4676;SDS011;2352;48.180;11.478;2023-09-19T17:42:16;1.93;;;1.00;;
4676;SDS011;2352;48.180;11.478;2023-09-19T17:45:20;1.33;;;0.90;;
4676;SDS011;2352;48.180;11.478;2023-09-19T17:48:23;2.38;;;1.00;;
4676;SDS011;2352;48.180;11.478;2023-09-19T17:51:28;1.48;;;1.17;;
4676;SDS011;2352;48.180;11.478;2023-09-19T17:54:31;1.48;;;1.38;;
4676;SDS011;2352;48.180;11.478;2023-09-19T17:57:35;1.30;;;1.20;;
4676;SDS011;2352;48.180;11.478;2023-09-19T18:00:38;1.30;;;1.20;;
4676;SDS011;2352;48.180;11.478;2023-09-19T18:03:42;0.90;;;0.90;;
4676;SDS011;2352;48.180;11.478;2023-09-19T18:06:47;3.70;;;1.30;;
4676;SDS011;2352;48.180;11.478;2023-09-19T18:09:51;1.25;;;1.00;;
4676;SDS011;2352;48.180;11.478;2023-09-19T18:12:53;1.20;;;1.00;;
4676;SDS011;2352;48.180;11.478;2023-09-19T18:15:57;1.20;;;1.07;;
4676;SDS011;2352;48.180;11.478;2023-09-19T18:19:01;1.42;;;0.90;;
4676;SDS011;2352;48.180;11.478;2023-09-19T18:22:07;1.52;;;1.15;;
4676;SDS011;2352;48.180;11.478;2023-09-19T18:25:12;1.30;;;1.00;;
4676;SDS011;2352;48.180;11.478;2023-09-19T18:28:18;1.20;;;1.10;;
4676;SDS011;2352;48.180;11.478;2023-09-19T18:31:21;1.30;;;0.93;;
4676;SDS011;2352;48.180;11.478;2023-09-19T18:34:25;1.33;;;1.15;;
4676;SDS011;2352;48.180;11.478;2023-09-19T18:37:30;1.23;;;1.13;;
4676;SDS011;2352;48.180;11.478;2023-09-19T18:40:33;2.80;;;1.87;;
4676;SDS011;2352;48.180;11.478;2023-09-19T18:43:38;2.60;;;2.40;;
4676;SDS011;2352;48.180;11.478;2023-09-19T18:46:41;3.30;;;3.00;;
4676;SDS011;2352;48.180;11.478;2023-09-19T18:49:46;4.32;;;2.97;;
4676;SDS011;2352;48.180;11.478;2023-09-19T18:52:51;3.15;;;2.85;;
4676;SDS011;2352;48.180;11.478;2023-09-19T18:56:01;2.58;;;2.38;;
4676;SDS011;2352;48.180;11.478;2023-09-19T18:59:05;2.65;;;2.10;;
4676;SDS011;2352;48.180;11.478;2023-09-19T19:02:08;2.72;;;2.00;;
4676;SDS011;2352;48.180;11.478;2023-09-19T19:05:12;2.80;;;2.20;;
4676;SDS011;2352;48.180;11.478;2023-09-19T19:08:19;2.95;;;2.65;;